Terminal Aerodrome Forecast
Issued by NWS

Home | Current Version | Previous Version | Text Only | Print | Product List | Glossary On
Versions: 1 2 3 4 5 6 7 8 9 10 11 12
000
FTUS46 KMTR 221722
TAFMRY
TAF
KMRY 221722Z 2218/2318 32004KT P6SM FEW250
     FM222200 31004KT P6SM BKN200
     FM230400 VRB03KT P6SM BKN180
      TEMPO 2313/2316 SCT030 BKN150=

USA.gov is the U.S. government's official web portal to all federal, state and local government web resources and services.